Stormwatcher's Retreat Logo




                  Temp     Hi    Low   Out    Dew  Wind  Wind   Wind    Hi    Hi   Wind   Heat    THW   THSW                Rain  Solar   Solar Hi Solar   UV    UV    Hi     Heat    Cool    In     In    In     In     In   In Air          Wind  Wind    ISS   Arc.
  Date    Time     Out   Temp   Temp   Hum    Pt. Speed   Dir    Run Speed   Dir  Chill  Index  Index  Index   Bar    Rain  Rate   Rad.  Energy    Rad.  Index  Dose   UV     D-D     D-D    Temp   Hum    Dew   Heat    EMC Density     ET   Samp   Tx   Recept  Int.
------------------------------------------------------------------------------------------------------------------------------------------------------------------------------------------------------------------------------------------------------------------------
 5/07/21 12:10a   49.5   50.5   49.5    90   46.7   6.0   WNW   1.00  18.0   WSW   47.1   49.8   47.4   44.1  30.253  0.03  0.68     0     0.00      0     0.0  0.00   0.0   0.108   0.000   70.5    49   50.4   68.9   9.05  .0748    0.000   201    7    100.0   10 
 5/07/21 12:20a   49.2   49.5   49.2    91   46.7   2.0     S   0.33   6.0     W   49.2   49.5   49.5   46.2  30.250  0.00  0.04     0     0.00      0     0.0  0.00   0.0   0.110   0.000   70.5    49   50.4   68.9   9.05  .0748    0.000   203    7    100.0   10 
 5/07/21 12:30a   48.9   49.2   48.9    91   46.4   1.0     S   0.17   5.0   SSE   48.9   49.2   49.2   45.9  30.249  0.00  0.00     0     0.00      0     0.0  0.00   0.0   0.112   0.000   70.4    49   50.3   68.7   9.05  .0748    0.000   203    7    100.0   10 
 5/07/21 12:40a   48.7   49.0   48.7    91   46.2   2.0   ESE   0.33   5.0    SE   48.7   49.0   49.0   45.7  30.250  0.00  0.00     0     0.00      0     0.0  0.00   0.0   0.113   0.000   70.3    49   50.2   68.6   9.05  .0748    0.000   203    7    100.0   10 
 5/07/21 12:50a   48.5   48.7   48.4    92   46.3   1.0    SE   0.17   3.0    SE   48.5   48.8   48.8   45.5  30.251  0.00  0.00     0     0.00      0     0.0  0.00   0.0   0.115   0.000   70.3    49   50.2   68.6   9.05  .0748    0.000   202    7    100.0   10 
 5/07/21  1:00a   48.3   48.5   48.3    92   46.1   1.0    SE   0.17   4.0    SE   48.3   48.6   48.6   45.3  30.251  0.00  0.00     0     0.00      0     0.0  0.00   0.0   0.116   0.000   70.3    48   49.7   68.5   8.86  .0748    0.000   201    7    100.0   10 
 5/07/21  1:10a   48.2   48.4   48.2    92   46.0   1.0    SE   0.17   4.0    SE   48.2   48.5   48.5   45.2  30.253  0.00  0.00     0     0.00      0     0.0  0.00   0.0   0.117   0.000   70.2    48   49.6   68.4   8.85  .0748    0.000   204    7    100.0   10 
 5/07/21  1:20a   47.9   48.2   47.9    92   45.7   2.0    SE   0.33   4.0    SE   47.9   48.2   48.2   44.9  30.252  0.00  0.00     0     0.00      0     0.0  0.00   0.0   0.119   0.000   70.2    48   49.6   68.4   8.85  .0748    0.000   200    7    100.0   10 
 5/07/21  1:30a   47.6   47.9   47.6    92   45.4   1.0    SE   0.17   4.0   SSE   47.6   47.9   47.9   44.6  30.252  0.00  0.00     0     0.00      0     0.0  0.00   0.0   0.121   0.000   70.1    48   49.5   68.2   8.85  .0748    0.000   204    7    100.0   10 
 5/07/21  1:40a   47.3   47.6   47.3    92   45.1   2.0    SE   0.33   4.0   SSE   47.3   47.6   47.6   44.3  30.248  0.00  0.00     0     0.00      0     0.0  0.00   0.0   0.123   0.000   70.1    48   49.5   68.2   8.85  .0748    0.000   202    7    100.0   10 
 5/07/21  1:50a   47.5   47.5   47.2    93   45.6   2.0   SSE   0.33   5.0    SE   47.5   47.8   47.8   44.5  30.250  0.00  0.00     0     0.00      0     0.0  0.00   0.0   0.122   0.000   70.0    48   49.4   68.1   8.85  .0749    0.000   200    7    100.0   10 
 5/07/21  2:00a   47.8   47.8   47.4    93   45.9   2.0    SE   0.33   5.0     S   47.8   48.1   48.1   44.8  30.246  0.00  0.00     0     0.00      0     0.0  0.00   0.0   0.119   0.000   70.0    48   49.4   68.1   8.85  .0749    0.000   202    7    100.0   10 
 5/07/21  2:10a   47.9   47.9   47.8    93   46.0   2.0    SE   0.33   5.0   SSE   47.9   48.2   48.2   44.9  30.247  0.00  0.00     0     0.00      0     0.0  0.00   0.0   0.119   0.000   69.9    48   49.3   68.0   8.85  .0749    0.000   203    7    100.0   10 
 5/07/21  2:20a   48.3   48.3   47.9    93   46.4   3.0     S   0.50   9.0   WSW   47.7   48.6   48.0   44.7  30.251  0.00  0.00     0     0.00      0     0.0  0.00   0.0   0.116   0.000   69.9    48   49.3   68.0   8.85  .0749    0.000   201    7    100.0   10 
 5/07/21  2:30a   48.6   48.6   48.3    93   46.7   5.0   SSW   0.83  10.0     N   46.6   49.0   47.0   43.7  30.251  0.00  0.00     0     0.00      0     0.0  0.00   0.0   0.114   0.000   69.8    48   49.2   68.0   8.85  .0749    0.000   200    7    100.0   10 
 5/07/21  2:40a   48.4   48.7   48.4    92   46.2   2.0     S   0.33   5.0   SSE   48.4   48.7   48.7   45.4  30.250  0.00  0.00     0     0.00      0     0.0  0.00   0.0   0.115   0.000   69.8    48   49.2   68.0   8.85  .0749    0.000   202    7    100.0   10 
 5/07/21  2:50a   47.7   48.4   47.7    92   45.5   1.0    SE   0.17   3.0   SSE   47.7   48.0   48.0   44.7  30.249  0.00  0.00     0     0.00      0     0.0  0.00   0.0   0.120   0.000   69.7    48   49.1   67.9   8.86  .0749    0.000   203    7    100.0   10 
 5/07/21  3:00a   47.1   47.7   47.1    92   44.9   1.0    SE   0.17   3.0    SE   47.1   47.3   47.3   44.0  30.248  0.00  0.00     0     0.00      0     0.0  0.00   0.0   0.124   0.000   69.7    48   49.1   67.9   8.86  .0749    0.000   204    7    100.0   10 
 5/07/21  3:10a   46.7   47.1   46.7    92   44.5   0.0    SE   0.00   3.0    SE   46.7   46.9   46.9   43.6  30.251  0.00  0.00     0     0.00      0     0.0  0.00   0.0   0.127   0.000   69.6    48   49.0   67.8   8.86  .0749    0.000   204    7    100.0   10 
 5/07/21  3:20a   46.5   46.7   46.5    93   44.6   0.0   ---   0.00   0.0   ---   46.5   46.7   46.7   43.4  30.251  0.00  0.00     0     0.00      0     0.0  0.00   0.0   0.128   0.000   69.6    48   49.0   67.8   8.86  .0749    0.000   204    7    100.0   10 
 5/07/21  3:30a   46.6   46.7   46.6    93   44.7   0.0     S   0.00   3.0     S   46.6   46.8   46.8   43.5  30.252  0.00  0.00     0     0.00      0     0.0  0.00   0.0   0.128   0.000   69.5    48   48.9   67.8   8.86  .0750    0.000   203    7    100.0   10 
 5/07/21  3:40a   46.9   47.0   46.7    93   45.0   2.0   SSE   0.33   7.0   SSE   46.9   47.2   47.2   43.9  30.255  0.00  0.00     0     0.00      0     0.0  0.00   0.0   0.126   0.000   69.5    48   48.9   67.8   8.86  .0750    0.000   204    7    100.0   10 
 5/07/21  3:50a   47.4   47.4   47.0    94   45.8   2.0     S   0.33  10.0   WSW   47.4   47.7   47.7   44.4  30.255  0.01  0.00     0     0.00      0     0.0  0.00   0.0   0.122   0.000   69.4    48   48.9   67.7   8.86  .0750    0.000   203    7    100.0   10 
 5/07/21  4:00a   47.5   47.6   47.4    93   45.6   2.0     S   0.33   4.0     S   47.5   47.8   47.8   44.5  30.258  0.00  0.00     0     0.00      0     0.0  0.00   0.0   0.122   0.000   69.4    48   48.9   67.7   8.86  .0750    0.000   204    7    100.0   10 
 5/07/21  4:10a   47.4   47.5   47.4    93   45.5   1.0     S   0.17   4.0    SE   47.4   47.7   47.7   44.4  30.259  0.00  0.00     0     0.00      0     0.0  0.00   0.0   0.122   0.000   69.3    48   48.8   67.6   8.86  .0750    0.000   205    7    100.0   10 
 5/07/21  4:20a   47.3   47.4   47.3    93   45.4   0.0    SE   0.00   1.0    SE   47.3   47.6   47.6   44.3  30.262  0.00  0.00     0     0.00      0     0.0  0.00   0.0   0.123   0.000   69.3    48   48.8   67.6   8.86  .0750    0.000   202    7    100.0   10 
 5/07/21  4:30a   47.1   47.3   47.0    93   45.2   0.0    SE   0.00   4.0   SSE   47.1   47.4   47.4   44.1  30.264  0.00  0.00     0     0.00      0     0.0  0.00   0.0   0.124   0.000   69.2    48   48.7   67.5   8.87  .0750    0.000   203    7    100.0   10 
 5/07/21  4:40a   47.0   47.1   46.9    93   45.1   1.0   SSE   0.17   2.0   SSE   47.0   47.3   47.3   44.0  30.263  0.00  0.00     0     0.00      0     0.0  0.00   0.0   0.125   0.000   69.2    48   48.7   67.5   8.87  .0750    0.000   205    7    100.0   10 
 5/07/21  4:50a   47.0   47.1   46.9    94   45.4   1.0   SSE   0.17   4.0   SSE   47.0   47.3   47.3   44.0  30.265  0.00  0.00     0     0.00      0     0.0  0.00   0.0   0.125   0.000   69.1    48   48.6   67.5   8.87  .0751    0.000   204    7    100.0   10 
 5/07/21  5:00a   47.2   47.2   47.0    94   45.6   3.0     S   0.50  11.0   SSE   46.5   47.5   46.8   43.5  30.268  0.00  0.00     0     0.00      0     0.0  0.00   0.0   0.124   0.000   69.1    48   48.6   67.5   8.87  .0751    0.000   202    7    100.0   10 
 5/07/21  5:10a   48.0   48.0   47.2    93   46.1   8.0   SSW   1.33  13.0   SSW   44.1   48.3   44.4   41.3  30.266  0.00  0.00     0     0.00      0     0.0  0.00   0.0   0.118   0.000   69.0    48   48.5   67.4   8.87  .0751    0.000   204    7    100.0   10 
 5/07/21  5:20a   48.3   48.3   48.0    93   46.4   8.0   SSW   1.33  14.0    SW   44.5   48.6   44.8   41.7  30.270  0.00  0.00     0     0.00      0     0.0  0.00   0.0   0.116   0.000   69.0    48   48.5   67.4   8.87  .0751    0.000   203    7    100.0   10 
 5/07/21  5:30a   47.9   48.5   47.9    92   45.7   7.0   WNW   1.17  18.0     N   44.7   48.2   45.0   41.7  30.272  0.03  0.40     0     0.00      0     0.0  0.00   0.0   0.119   0.000   69.0    48   48.5   67.4   8.87  .0751    0.000   203    7    100.0   10 
 5/07/21  5:40a   47.6   47.9   47.6    92   45.4   2.0   NNE   0.33   3.0   NNW   47.6   47.9   47.9   44.6  30.271  0.00  0.04     0     0.00      0     0.0  0.00   0.0   0.121   0.000   68.9    48   48.4   67.3   8.87  .0751    0.000   203    7    100.0   10 
 5/07/21  5:50a   47.4   47.6   47.4    92   45.2   1.0   NNE   0.17   3.0   NNE   47.4   47.7   47.7   44.4  30.272  0.00  0.00     0     0.00      0     0.0  0.00   0.0   0.122   0.000   69.0    49   49.0   67.5   9.07  .0751    0.000   204    7    100.0   10 
 5/07/21  6:00a   47.2   47.4   47.2    92   45.0   1.0    SE   0.17   4.0    SE   47.2   47.4   47.4   44.1  30.273  0.00  0.00     0     0.00      0     0.0  0.00   0.0   0.124   0.000   69.1    49   49.1   67.6   9.07  .0751    0.000   204    7    100.0   10 
 5/07/21  6:10a   47.2   47.2   47.1    93   45.3   1.0     S   0.17   5.0   ESE   47.2   47.5   47.5   44.2  30.277  0.00  0.00     0     0.00      0     0.0  0.00   0.0   0.124   0.000   69.2    49   49.2   67.6   9.07  .0750    0.000   203    7    100.0   10 
 5/07/21  6:20a   47.1   47.2   47.1    93   45.2   1.0     S   0.17   2.0     S   47.1   47.4   47.4   44.2  30.279  0.00  0.00     7     0.10      9     0.0  0.00   0.0   0.124   0.000   69.4    49   49.4   67.8   9.06  .0750    0.000   203    7    100.0   10 
 5/07/21  6:30a   47.1   47.2   47.1    93   45.2   0.0     S   0.00   2.0     S   47.1   47.4   47.4   44.4  30.283  0.00  0.00    13     0.19     16     0.0  0.00   0.0   0.124   0.000   69.7    49   49.7   68.0   9.06  .0750    0.000   202    7    100.0   10 
 5/07/21  6:40a   47.1   47.2   47.1    93   45.2   0.0    SE   0.00   2.0   SSE   47.1   47.4   47.4   44.4  30.285  0.00  0.00    16     0.23     19     0.0  0.00   0.0   0.124   0.000   70.0    49   50.0   68.2   9.05  .0749    0.000   204    7    100.0   10 
 5/07/21  6:50a   46.9   47.1   46.9    93   45.0   0.0    SE   0.00   2.0    SE   46.9   47.2   47.2   44.2  30.289  0.00  0.00    17     0.24     19     0.0  0.00   0.0   0.126   0.000   70.3    49   50.2   68.6   9.05  .0749    0.000   203    7    100.0   10 
 5/07/21  7:00a   46.8   47.0   46.8    93   44.9   0.0    SE   0.00   3.0    SE   46.8   47.1   47.1   44.4  30.291  0.00  0.00    30     0.43     39     0.0  0.00   0.0   0.126   0.000   70.6    49   50.5   69.0   9.05  .0748    0.000   202    7    100.0   10 
 5/07/21  7:10a   47.0   47.0   46.7    94   45.4   1.0    SE   0.17   2.0    SE   47.0   47.3   47.3   45.0  30.291  0.00  0.00    47     0.67     54     0.0  0.00   0.0   0.125   0.000   70.9    49   50.8   69.4   9.05  .0748    0.000   204    7    100.0   10 
 5/07/21  7:20a   47.1   47.1   46.9    94   45.5   1.0    SE   0.17   3.0    SE   47.1   47.4   47.4   45.0  30.292  0.00  0.00    43     0.62     49     0.0  0.00   0.0   0.124   0.000   71.0    49   50.9   69.5   9.05  .0748    0.000   203    7    100.0   10 
 5/07/21  7:30a   47.2   47.2   47.1    94   45.6   1.0    SE   0.17   2.0    SE   47.2   47.5   47.5   45.2  30.293  0.00  0.00    48     0.69     58     0.0  0.00   0.0   0.124   0.000   71.1    49   51.0   69.6   9.05  .0748    0.000   203    7    100.0   10 
 5/07/21  7:40a   47.4   47.4   47.2    94   45.8   1.0    SE   0.17   3.0    SE   47.4   47.7   47.7   48.7  30.295  0.00  0.00    72     1.03     84     0.0  0.00   0.0   0.122   0.000   71.1    49   51.0   69.6   9.05  .0748    0.000   202    7    100.0   10 
 5/07/21  7:50a   47.7   47.7   47.4    94   46.1   0.0    SE   0.00   2.0    SE   47.7   48.0   48.0   48.8  30.297  0.00  0.00    62     0.89     76     0.0  0.00   0.0   0.120   0.000   71.0    49   50.9   69.5   9.05  .0748    0.000   203    7    100.0   10 
 5/07/21  8:00a   48.1   48.2   47.7    95   46.7   1.0    SE   0.17   4.0    SE   48.1   48.5   48.5   50.1  30.302  0.00  0.00    84     1.20    102     0.0  0.00   0.0   0.117   0.000   71.0    49   50.9   69.5   9.05  .0748    0.001   202    7    100.0   10 
 5/07/21  8:10a   48.5   48.6   48.2    94   46.9   2.0   SSW   0.33   9.0     W   48.5   48.9   48.9   48.6  30.307  0.00  0.00    41     0.59     54     0.0  0.00   0.0   0.115   0.000   70.9    49   50.8   69.4   9.05  .0748    0.000   202    7    100.0   10 
 5/07/21  8:20a   49.0   49.0   48.6    94   47.3   6.0   WNW   1.00   9.0   WNW   46.5   49.5   47.0   48.2  30.308  0.00  0.00    75     1.08     98     0.3  0.02   0.6   0.111   0.000   70.9    49   50.8   69.4   9.05  .0748    0.000   203    7    100.0   10 
 5/07/21  8:30a   49.2   49.2   48.9    94   47.5   7.0   WNW   1.17   9.0     W   46.2   49.7   46.7   54.8  30.313  0.00  0.00   309     4.43    464     0.8  0.06   0.9   0.110   0.000   70.9    49   50.8   69.4   9.05  .0748    0.000   203    7    100.0   10 
 5/07/21  8:40a   49.5   49.6   49.2    94   47.8   6.0   WNW   1.00  11.0   WNW   47.1   50.0   47.6   53.5  30.318  0.00  0.00   216     3.10    475     0.8  0.06   0.9   0.108   0.000   70.9    48   50.2   69.3   8.87  .0749    0.000   203    7    100.0   10 
 5/07/21  8:50a   48.9   49.4   48.9    92   46.7   6.0     N   1.00  11.0   NNE   46.4   49.3   46.8   51.8  30.317  0.00  0.00   197     2.82    202     0.8  0.06   0.8   0.112   0.000   70.9    48   50.2   69.3   8.87  .0749    0.000   203    7    100.0   10 
 5/07/21  9:00a   49.5   49.5   48.8    92   47.3   7.0     N   1.17  11.0     N   46.6   49.9   47.0   52.2  30.318  0.00  0.00   211     3.02    236     0.8  0.06   0.9   0.108   0.000   70.9    48   50.2   69.3   8.87  .0749    0.003   203    7    100.0   10 
 5/07/21  9:10a   49.4   49.6   49.4    90   46.6   5.0     N   0.83   9.0     N   47.5   49.7   47.8   51.3  30.324  0.00  0.00   160     2.29    179     0.8  0.06   0.9   0.108   0.000   70.9    48   50.2   69.3   8.87  .0749    0.000   204    7    100.0   10 
 5/07/21  9:20a   49.5   49.5   49.3    90   46.7   4.0     N   0.67   7.0     N   48.3   49.8   48.6   49.2  30.325  0.00  0.00    78     1.12    114     0.9  0.06   1.0   0.108   0.000   70.8    48   50.1   69.1   8.87  .0749    0.000   202    7    100.0   10 
 5/07/21  9:30a   50.3   50.3   49.4    91   47.8   3.0    NE   0.50   5.0    NE   50.0   50.6   50.3   49.9  30.327  0.00  0.00    51     0.73     53     0.0  0.00   0.0   0.102   0.000   70.8    48   50.1   69.1   8.87  .0749    0.000   202    7    100.0   10 
 5/07/21  9:40a   50.6   50.7   50.3    90   47.8   3.0   ENE   0.50   5.0   NNE   50.4   50.8   50.6   50.1  30.327  0.00  0.00    49     0.70     53     0.0  0.00   0.0   0.100   0.000   70.8    48   50.1   69.1   8.87  .0749    0.000   203    7    100.0   10 
 5/07/21  9:50a   50.8   50.8   50.6    90   48.0   2.0   NNE   0.33   4.0   NNW   50.8   51.0   51.0   50.5  30.331  0.00  0.00    51     0.73     53     0.0  0.00   0.0   0.099   0.000   70.7    48   50.0   69.0   8.86  .0749    0.000   202    7    100.0   10 
 5/07/21 10:00a   51.3   51.4   50.8    90   48.5   2.0    NW   0.33   4.0    NW   51.3   51.5   51.5   51.2  30.335  0.00  0.00    58     0.83     65     1.1  0.08   1.4   0.095   0.000   70.6    48   50.0   68.9   8.86  .0750    0.002   202    7    100.0   10 
 5/07/21 10:10a   51.9   51.9   51.3    90   49.1   2.0    NW   0.33   4.0    NW   51.9   52.1   52.1   53.0  30.337  0.00  0.00    99     1.42    227     1.5  0.11   1.6   0.091   0.000   70.5    48   49.9   68.8   8.86  .0750    0.000   201    7    100.0   10 
 5/07/21 10:20a   52.6   52.6   51.9    89   49.4   2.0    NW   0.33   4.0    NW   52.6   52.7   52.7   61.9  30.340  0.00  0.00   451     6.47    633     2.1  0.15   2.9   0.086   0.000   70.5    48   49.9   68.8   8.86  .0750    0.000   204    7    100.0   10 
 5/07/21 10:30a   52.5   52.6   52.5    87   48.7   2.0     N   0.33   4.0     N   52.5   52.5   52.5   58.3  30.346  0.00  0.00   287     4.11    387     1.9  0.14   2.8   0.087   0.000   70.5    48   49.9   68.8   8.86  .0750    0.000   202    7    100.0   10 
 5/07/21 10:40a   51.5   52.5   51.5    86   47.5   6.0    NW   1.00  11.0   WNW   49.5   51.5   49.5   55.8  30.350  0.00  0.00   320     4.59    459     1.9  0.14   2.1   0.094   0.000   70.5    48   49.9   68.8   8.86  .0750    0.000   201    7    100.0   10 
 5/07/21 10:50a   51.3   51.4   51.0    87   47.6   3.0   NNE   0.50   9.0     N   51.1   51.4   51.2   57.6  30.354  0.00  0.00   329     4.72    366     2.3  0.16   3.1   0.095   0.000   70.5    48   49.9   68.8   8.86  .0750    0.000   203    7    100.0   10 
 5/07/21 11:00a   52.0   52.0   51.4    86   47.9   3.0     N   0.50   5.0     N   51.9   52.0   51.9   61.6  30.357  0.00  0.00   532     7.63    687     3.0  0.21   3.4   0.090   0.000   70.5    48   49.9   68.8   8.86  .0750    0.007   201    7    100.0   10 
 5/07/21 11:10a   52.2   52.2   52.0    85   47.8   3.0    NW   0.50   4.0    NW   52.1   52.2   52.1   62.0  30.361  0.00  0.00   558     8.00    608     3.4  0.24   3.8   0.089   0.000   70.5    48   49.9   68.8   8.86  .0751    0.000   201    7    100.0   10 
 5/07/21 11:20a   52.6   52.6   52.2    84   47.9   3.0   WNW   0.50   5.0   WNW   52.6   52.5   52.5   63.7  30.360  0.00  0.00   792    11.35    838     4.0  0.29   4.3   0.086   0.000   70.5    48   49.9   68.8   8.86  .0751    0.000   204    7    100.0   10 
 5/07/21 11:30a   52.9   52.9   52.6    83   47.9   3.0   WNW   0.50   5.0   WNW   52.9   52.7   52.7   64.6  30.365  0.00  0.00   849    12.17    858     4.4  0.31   4.6   0.084   0.000   70.4    48   49.8   68.6   8.86  .0751    0.000   198    7    100.0   10 
 5/07/21 11:40a   53.0   53.1   52.9    82   47.7   3.0   WNW   0.50   6.0   WNW   53.0   52.8   52.8   64.7  30.367  0.00  0.00   870    12.47    882     4.7  0.34   4.8   0.083   0.000   70.5    48   49.9   68.8   8.86  .0751    0.000   202    7    100.0   10 
 5/07/21 11:50a   53.3   53.4   53.1    82   47.9   3.0   WNW   0.50   6.0   WNW   53.3   53.1   53.1   65.1  30.371  0.00  0.00   893    12.80    919     5.0  0.36   5.2   0.081   0.000   70.6    48   50.0   68.9   8.86  .0751    0.000   199    7    100.0   10 
 5/07/21 12:00p   53.6   53.7   53.2    81   47.9   4.0     W   0.67   6.0     W   53.0   53.3   52.7   66.0  30.374  0.00  0.00   989    14.18   1049     5.3  0.38   5.8   0.079   0.000   70.8    48   50.1   69.1   8.87  .0750    0.016   202    7    100.0   10 
 5/07/21 12:10p   53.5   53.8   53.5    80   47.5   4.0     W   0.67   6.0     W   52.9   53.2   52.6   66.0  30.376  0.00  0.00  1007    14.44   1007     4.6  0.33   6.1   0.080   0.000   70.9    48   50.2   69.3   8.87  .0750    0.000   204    7    100.0   10 
 5/07/21 12:20p   53.8   53.8   53.5    81   48.1   4.0     W   0.67   6.0     W   53.3   53.5   53.0   65.0  30.377  0.00  0.00   930    13.33    933     5.5  0.39   5.7   0.078   0.000   71.0    48   50.3   69.4   8.87  .0750    0.000   205    7    100.0   10 
 5/07/21 12:30p   54.1   54.1   53.8    80   48.1   3.0     W   0.50   5.0   WNW   54.1   53.8   53.8   65.7  30.379  0.00  0.00   939    13.46    949     5.7  0.41   5.8   0.076   0.000   71.1    48   50.4   69.6   8.87  .0750    0.000   201    7    100.0   10 
 5/07/21 12:40p   55.4   55.4   54.1    81   49.7   4.0    NW   0.67   8.0   WNW   55.1   55.1   54.8   67.9  30.381  0.00  0.00  1017    14.58   1125     5.7  0.41   6.7   0.067   0.000   71.2    48   50.5   69.7   8.87  .0750    0.000   204    7    100.0   10 
 5/07/21 12:50p   55.7   56.1   55.4    78   48.9   4.0    NW   0.67   7.0    NE   55.4   55.3   55.0   59.1  30.380  0.00  0.00   256     3.67    422     2.8  0.20   5.9   0.065   0.000   71.3    48   50.6   69.9   8.88  .0750    0.000   201    7    100.0   10 
 5/07/21  1:00p   55.6   55.7   55.4    78   48.8   4.0   NNE   0.67   7.0   NNE   55.3   55.2   54.9   67.2  30.381  0.00  0.00   980    14.05   1025     5.8  0.41   6.3   0.065   0.000   71.4    48   50.7   70.0   8.88  .0749    0.016   200    7    100.0   10 
 5/07/21  1:10p   55.0   55.6   55.0    78   48.3   6.0     N   1.00   9.0     N   53.6   54.6   53.2   65.2  30.382  0.00  0.00   967    13.86    969     5.9  0.42   6.0   0.069   0.000   71.4    48   50.7   70.0   8.88  .0750    0.000   201    7    100.0   10 
 5/07/21  1:20p   54.9   55.1   54.9    77   47.8   5.0   NNE   0.83   9.0     N   54.0   54.5   53.6   65.9  30.385  0.00  0.00   989    14.18   1020     5.7  0.41   6.0   0.070   0.000   71.5    48   50.8   70.2   8.88  .0749    0.000   202    7    100.0   10 
 5/07/21  1:30p   55.4   55.4   54.9    78   48.7   4.0   NNE   0.67   8.0   NNE   55.1   55.0   54.7   66.8  30.386  0.00  0.00   971    13.92    988     5.8  0.41   5.9   0.067   0.000   71.6    48   50.9   70.3   8.88  .0749    0.000   198    7    100.0   10 
 5/07/21  1:40p   56.5   56.5   55.4    80   50.4   4.0     N   0.67   8.0     N   56.4   56.2   56.1   68.4  30.388  0.00  0.00   973    13.95   1004     5.8  0.41   5.9   0.059   0.000   71.6    48   50.9   70.3   8.88  .0749    0.000   201    7    100.0   10 
 5/07/21  1:50p   55.8   56.7   55.8    77   48.7   6.0     N   1.00  10.0   NNE   54.6   55.3   54.1   66.3  30.388  0.00  0.00   971    13.92   1004     5.8  0.41   5.9   0.064   0.000   71.7    48   51.0   70.4   8.88  .0749    0.000   202    7    100.0   10 
 5/07/21  2:00p   55.8   55.8   55.6    78   49.0   5.0   NNE   0.83   8.0     N   55.1   55.4   54.7   66.7  30.387  0.00  0.00   945    13.55    963     5.7  0.41   5.7   0.064   0.000   71.8    48   51.0   70.6   8.89  .0749    0.019   202    7    100.0   10 
 5/07/21  2:10p   56.3   56.3   55.7    77   49.2   4.0   NNE   0.67   9.0     N   56.2   55.8   55.7   68.0  30.387  0.00  0.00   952    13.65    956     5.5  0.39   5.6   0.060   0.000   71.8    48   51.0   70.6   8.89  .0749    0.000   204    7    100.0   10 
 5/07/21  2:20p   56.5   56.5   56.2    77   49.4   4.0     N   0.67   7.0   NNE   56.4   56.1   56.0   68.3  30.388  0.00  0.00   943    13.52    947     5.4  0.39   5.5   0.059   0.000   71.8    48   51.0   70.6   8.89  .0749    0.000   204    7    100.0   10 
 5/07/21  2:30p   56.6   56.8   56.6    76   49.1   5.0     N   0.83   8.0     N   56.0   56.1   55.5   67.5  30.390  0.00  0.00   915    13.12    942     5.3  0.38   5.4   0.058   0.000   71.8    48   51.0   70.6   8.89  .0749    0.000   202    7    100.0   10 
 5/07/21  2:40p   56.1   56.6   56.1    75   48.3   5.0     N   0.83   9.0   NNW   55.4   55.5   54.8   67.2  30.388  0.00  0.00   923    13.23    926     5.1  0.36   5.2   0.062   0.000   71.9    48   51.1   70.8   8.89  .0749    0.000   201    7    100.0   10 
 5/07/21  2:50p   56.1   56.3   56.0    76   48.6   6.0     N   1.00   9.0     N   54.9   55.6   54.4   66.8  30.384  0.00  0.00   910    13.05    916     5.0  0.36   5.1   0.062   0.000   72.0    48   51.2   70.9   8.89  .0749    0.000   201    7    100.0   10 
 5/07/21  3:00p   56.1   56.2   56.1    75   48.3   7.0     N   1.17  11.0     N   54.5   55.5   53.9   66.2  30.387  0.00  0.00   900    12.90    905     4.8  0.34   4.9   0.062   0.000   72.0    48   51.2   70.9   8.89  .0749    0.019   204    7    100.0   10 
 5/07/21  3:10p   56.1   56.3   56.0    75   48.3   7.0     N   1.17  10.0   NNW   54.5   55.5   53.9   66.3  30.391  0.00  0.00   886    12.70    895     4.6  0.33   4.7   0.062   0.000   72.2    49   52.0   71.3   9.05  .0748    0.000   199    7    100.0   10 
 5/07/21  3:20p   56.2   56.2   56.1    76   48.7   7.0     N   1.17  11.0     N   54.6   55.7   54.1   66.6  30.390  0.00  0.00   869    12.46    875     4.4  0.31   4.5   0.061   0.000   72.2    49   52.0   71.3   9.05  .0748    0.000   200    7    100.0   10 
 5/07/21  3:30p   56.4   56.5   56.2    75   48.6   6.0     N   1.00   9.0     N   55.3   55.8   54.7   67.5  30.390  0.00  0.00   847    12.14    858     4.2  0.30   4.3   0.060   0.000   72.3    49   52.1   71.4   9.05  .0748    0.000   203    7    100.0   10 
 5/07/21  3:40p   56.5   56.6   56.4    74   48.3   7.0     N   1.17  10.0     N   55.0   55.9   54.4   67.0  30.389  0.00  0.00   828    11.87    837     4.0  0.29   4.1   0.059   0.000   72.4    49   52.2   71.6   9.05  .0748    0.000   201    7    100.0   10 
 5/07/21  3:50p   56.3   56.6   56.3    73   47.8   6.0     N   1.00  10.0     N   55.2   55.6   54.5   67.2  30.393  0.00  0.00   794    11.38    819     3.7  0.26   3.9   0.060   0.000   72.5    49   52.2   71.7   9.05  .0748    0.000   201    7    100.0   10 
 5/07/21  4:00p   56.6   56.7   56.2    73   48.0   6.0     N   1.00  10.0     N   55.5   56.0   54.9   68.0  30.392  0.00  0.00   785    11.25    795     3.2  0.23   3.5   0.058   0.000   72.5    49   52.2   71.7   9.05  .0748    0.017   204    7    100.0   10 
 5/07/21  4:10p   56.6   56.6   56.4    73   48.0   6.0     N   1.00   9.0     N   55.5   56.0   54.9   68.1  30.395  0.00  0.00   763    10.94    775     3.2  0.23   3.3   0.058   0.000   72.6    49   52.3   71.9   9.05  .0748    0.000   204    7    100.0   10 
 5/07/21  4:20p   56.6   56.7   56.4    71   47.3   7.0     N   1.17  11.0     N   55.1   55.9   54.4   67.3  30.395  0.00  0.00   738    10.58    751     3.0  0.21   3.1   0.058   0.000   72.7    49   52.4   72.0   9.05  .0747    0.000   201    7    100.0   10 
 5/07/21  4:30p   56.0   56.6   56.0    71   46.7   7.0     N   1.17  11.0   NNW   54.4   55.2   53.6   66.6  30.396  0.00  0.00   713    10.22    724     2.7  0.19   2.9   0.063   0.000   72.7    49   52.4   72.0   9.05  .0747    0.000   203    7    100.0   10 
 5/07/21  4:40p   55.8   56.0   55.8    71   46.5   7.0     N   1.17  10.0    NE   54.2   55.0   53.4   66.4  30.399  0.00  0.00   688     9.86    698     2.5  0.18   2.6   0.064   0.000   72.8    49   52.5   72.1   9.05  .0747    0.000   204    7    100.0   10 
 5/07/21  4:50p   55.7   55.9   55.7    71   46.4   8.0     N   1.33  11.0   NNW   53.3   54.9   52.5   65.1  30.400  0.00  0.00   661     9.48    673     2.3  0.16   2.4   0.065   0.000   72.8    49   52.5   72.1   9.05  .0747    0.000   204    7    100.0   10 
 5/07/21  5:00p   55.8   55.8   55.7    72   46.9   7.0     N   1.17  11.0   NNW   54.2   55.1   53.5   66.7  30.401  0.00  0.00   635     9.10    649     2.1  0.15   2.2   0.064   0.000   72.9    49   52.6   72.3   9.05  .0747    0.015   202    7    100.0   10 
 5/07/21  5:10p   55.5   55.8   55.5    72   46.6   7.0     N   1.17  10.0   NNW   53.8   54.8   53.1   66.2  30.402  0.00  0.00   603     8.64    619     1.8  0.13   1.9   0.066   0.000   72.9    48   52.1   72.2   8.91  .0747    0.000   204    7    100.0   10 
 5/07/21  5:20p   55.6   55.7   55.5    71   46.3   7.0     N   1.17  11.0     N   53.9   54.8   53.1   66.3  30.402  0.00  0.00   579     8.30    585     1.6  0.11   1.7   0.065   0.000   72.9    48   52.1   72.2   8.91  .0747    0.000   204    7    100.0   10 
 5/07/21  5:30p   55.8   55.9   55.6    70   46.2   7.0     N   1.17  10.0     N   54.2   55.0   53.4   67.3  30.402  0.00  0.00   573     8.21    603     1.4  0.10   1.5   0.064   0.000   73.0    48   52.1   72.3   8.91  .0747    0.000   204    7    100.0   10 
 5/07/21  5:40p   55.6   55.9   55.6    71   46.3   7.0     N   1.17  10.0   NNW   53.9   54.8   53.1   68.1  30.403  0.00  0.00   577     8.27    617     1.3  0.09   1.3   0.065   0.000   73.0    48   52.1   72.3   8.91  .0747    0.000   204    7    100.0   10 
 5/07/21  5:50p   55.6   55.6   55.4    71   46.3   7.0     N   1.17  10.0     N   53.9   54.8   53.1   67.0  30.402  0.00  0.00   516     7.40    566     1.1  0.08   1.2   0.065   0.000   72.7    44   49.5   71.6   8.30  .0749    0.000   202    7    100.0   10 
 5/07/21  6:00p   55.7   55.7   55.5    72   46.8   7.0     N   1.17  12.0     N   54.0   55.0   53.3   65.9  30.402  0.00  0.00   453     6.49    471     0.9  0.06   1.0   0.065   0.000   70.4    45   48.0   68.3   8.45  .0752    0.012   202    7    100.0   10 
 5/07/21  6:10p   55.3   55.7   55.3    71   46.1   7.0     N   1.17  11.0     N   53.6   54.6   52.9   64.6  30.402  0.00  0.00   405     5.81    424     0.8  0.06   0.9   0.067   0.000   68.7    47   47.6   67.0   8.78  .0755    0.000   202    7    100.0   10 
 5/07/21  6:20p   55.2   55.4   55.1    71   46.0   6.0     N   1.00  11.0     N   53.8   54.5   53.1   64.3  30.402  0.00  0.00   370     5.30    387     0.7  0.05   0.7   0.068   0.000   67.4    47   46.5   65.7   8.80  .0757    0.000   204    7    100.0   10 
 5/07/21  6:30p   55.0   55.2   54.9    71   45.8   6.0     N   1.00  10.0     N   53.6   54.3   52.9   63.4  30.400  0.00  0.00   336     4.82    352     0.6  0.04   0.6   0.069   0.000   65.9    47   45.1   64.0   8.83  .0760    0.000   201    7    100.0   10 
 5/07/21  6:40p   54.7   55.0   54.7    70   45.1   7.0     N   1.17  10.0     N   52.8   53.9   52.0   61.3  30.397  0.00  0.00   299     4.29    316     0.3  0.02   0.5   0.072   0.000   64.7    48   44.5   62.8   8.96  .0761    0.000   204    7    100.0   10 
 5/07/21  6:50p   54.4   54.8   54.3    71   45.2   6.0     N   1.00  10.0     N   52.9   53.7   52.2   60.6  30.397  0.00  0.00   262     3.76    278     0.0  0.00   0.0   0.074   0.000   64.0    49   44.4   62.1   9.19  .0762    0.000   204    7    100.0   10 
 5/07/21  7:00p   54.3   54.4   54.3    72   45.5   5.0     N   0.83  10.0     N   53.3   53.7   52.7   60.0  30.394  0.00  0.00   227     3.25    244     0.0  0.00   0.0   0.074   0.000   63.7    50   44.7   61.9   9.38  .0763    0.007   202    7    100.0   10 
 5/07/21  7:10p   54.0   54.3   54.0    73   45.5   6.0     N   1.00  10.0     N   52.4   53.4   51.8   52.5  30.398  0.00  0.00   186     2.67    204     0.0  0.00   0.0   0.076   0.000   63.4    51   44.9   61.6   9.58  .0763    0.000   203    7    100.0   10 
 5/07/21  7:20p   53.7   54.0   53.7    74   45.6   6.0     N   1.00  10.0   NNW   52.0   53.2   51.5   51.4  30.403  0.00  0.00   148     2.12    165     0.0  0.00   0.0   0.078   0.000   63.7    53   46.2   62.2   9.95  .0763    0.000   204    7    100.0   10 
 5/07/21  7:30p   53.3   53.7   53.3    74   45.2   5.0     N   0.83   9.0     N   52.1   52.8   51.6   50.6  30.402  0.00  0.00   108     1.55    128     0.0  0.00   0.0   0.081   0.000   65.2    53   47.6   63.8   9.95  .0760    0.000   202    7    100.0   10 
 5/07/21  7:40p   52.9   53.4   52.8    75   45.2   6.0   ENE   1.00  12.0    NE   51.1   52.4   50.6   49.1  30.406  0.00  0.00    84     1.20     91     0.0  0.00   0.0   0.084   0.000   66.5    52   48.3   65.2   9.72  .0758    0.000   203    7    100.0   10 
 5/07/21  7:50p   52.8   52.9   52.8    75   45.1   5.0   ENE   0.83  10.0   ENE   51.5   52.3   51.0   49.4  30.409  0.00  0.00    80     1.15     90     0.0  0.00   0.0   0.085   0.000   67.5    51   48.7   66.3   9.50  .0756    0.000   201    7    100.0   10 
 5/07/21  8:00p   52.5   52.9   52.5    76   45.2   6.0   ENE   1.00  10.0    NE   50.6   52.1   50.2   47.9  30.410  0.00  0.00    47     0.67     62     0.0  0.00   0.0   0.087   0.000   68.3    50   48.9   67.0   9.28  .0755    0.003   202    7    100.0   10 
 5/07/21  8:10p   52.2   52.5   52.2    77   45.2   5.0   NNE   0.83   9.0     N   50.8   51.9   50.5   47.9  30.413  0.00  0.00    31     0.44     40     0.0  0.00   0.0   0.089   0.000   69.0    50   49.6   67.6   9.27  .0754    0.000   202    7    100.0   10 
 5/07/21  8:20p   51.9   52.2   51.9    77   44.9   6.0     N   1.00  12.0   NNW   49.9   51.6   49.6   46.6  30.412  0.00  0.00    18     0.26     21     0.0  0.00   0.0   0.091   0.000   69.5    49   49.5   67.9   9.06  .0753    0.000   202    7    100.0   10 
 5/07/21  8:30p   51.6   51.9   51.6    78   45.0   7.0     N   1.17  10.0   NNW   49.1   51.4   48.9   45.7  30.412  0.00  0.00     6     0.09     11     0.0  0.00   0.0   0.093   0.000   69.7    49   49.7   68.0   9.06  .0753    0.000   203    7    100.0   10 
 5/07/21  8:40p   51.1   51.5   51.1    78   44.5   7.0     N   1.17  10.0   NNW   48.5   50.9   48.3   45.0  30.414  0.00  0.00     0     0.00      0     0.0  0.00   0.0   0.097   0.000   70.0    49   50.0   68.2   9.05  .0753    0.000   203    7    100.0   10 
 5/07/21  8:50p   50.8   51.1   50.8    78   44.2   5.0     N   0.83  10.0   ENE   49.2   50.6   49.0   45.7  30.413  0.00  0.00     0     0.00      0     0.0  0.00   0.0   0.099   0.000   70.1    49   50.0   68.3   9.05  .0752    0.000   201    7    100.0   10 
 5/07/21  9:00p   50.7   50.8   50.6    78   44.1   6.0    NE   1.00  10.0    NE   48.5   50.5   48.3   45.0  30.414  0.00  0.00     0     0.00      0     0.0  0.00   0.0   0.099   0.000   70.3    49   50.2   68.6   9.05  .0752    0.001   202    7    100.0   10 
 5/07/21  9:10p   50.5   50.7   50.5    78   43.9   4.0   NNE   0.67   8.0   NNE   49.5   50.4   49.4   46.0  30.417  0.00  0.00     0     0.00      0     0.0  0.00   0.0   0.101   0.000   70.3    49   50.2   68.6   9.05  .0752    0.000   201    7    100.0   10 
 5/07/21  9:20p   50.3   50.5   50.3    78   43.7   2.0   NNE   0.33   8.0    NE   50.3   50.2   50.2   46.8  30.419  0.00  0.00     0     0.00      0     0.0  0.00   0.0   0.102   0.000   70.4    49   50.3   68.7   9.05  .0752    0.000   202    7    100.0   10 
 5/07/21  9:30p   49.8   50.3   49.7    78   43.2   1.0   NNE   0.17   3.0   NNE   49.8   49.7   49.7   46.3  30.423  0.00  0.00     0     0.00      0     0.0  0.00   0.0   0.106   0.000   70.5    48   49.9   68.8   8.86  .0752    0.000   200    7    100.0   10 
 5/07/21  9:40p   49.2   49.8   49.2    78   42.6   1.0   NNE   0.17   6.0     E   49.2   49.0   49.0   45.6  30.425  0.00  0.00     0     0.00      0     0.0  0.00   0.0   0.110   0.000   70.5    48   49.9   68.8   8.86  .0752    0.000   198    7    100.0   10 
 5/07/21  9:50p   48.8   49.2   48.8    79   42.6   0.0     E   0.00   2.0     E   48.8   48.7   48.7   45.3  30.428  0.00  0.00     0     0.00      0     0.0  0.00   0.0   0.113   0.000   70.5    48   49.9   68.8   8.86  .0752    0.000   203    7    100.0   10 
 5/07/21 10:00p   48.5   48.8   48.5    79   42.3   1.0     E   0.17   3.0     E   48.5   48.4   48.4   45.0  30.431  0.00  0.00     0     0.00      0     0.0  0.00   0.0   0.115   0.000   70.6    48   50.0   68.9   8.86  .0752    0.001   200    7    100.0   10 
 5/07/21 10:10p   48.3   48.6   48.2    79   42.1   0.0   ---   0.00   0.0   ---   48.3   48.2   48.2   44.8  30.431  0.00  0.00     0     0.00      0     0.0  0.00   0.0   0.116   0.000   70.6    48   50.0   68.9   8.86  .0752    0.000   199    7    100.0   10 
 5/07/21 10:20p   48.1   48.3   48.1    79   41.9   0.0   ---   0.00   0.0   ---   48.1   48.0   48.0   44.5  30.430  0.00  0.00     0     0.00      0     0.0  0.00   0.0   0.117   0.000   70.6    48   50.0   68.9   8.86  .0752    0.000   197    7     99.5   10 
 5/07/21 10:30p   47.7   48.1   47.7    79   41.5   0.0   ---   0.00   0.0   ---   47.7   47.5   47.5   44.0  30.429  0.00  0.00     0     0.00      0     0.0  0.00   0.0   0.120   0.000   70.6    48   50.0   68.9   8.86  .0752    0.000   202    7    100.0   10 
 5/07/21 10:40p   47.3   47.8   47.3    79   41.1   0.0   ---   0.00   0.0   ---   47.3   47.1   47.1   43.6  30.430  0.00  0.00     0     0.00      0     0.0  0.00   0.0   0.123   0.000   70.6    48   50.0   68.9   8.86  .0752    0.000   198    7    100.0   10 
 5/07/21 10:50p   46.9   47.3   46.8    79   40.7   0.0   ---   0.00   0.0   ---   46.9   46.7   46.7   43.2  30.431  0.00  0.00     0     0.00      0     0.0  0.00   0.0   0.126   0.000   70.6    48   50.0   68.9   8.86  .0752    0.000   199    7    100.0   10 
 5/07/21 11:00p   46.5   46.8   46.5    80   40.7   0.0   ---   0.00   0.0   ---   46.5   46.3   46.3   42.8  30.433  0.00  0.00     0     0.00      0     0.0  0.00   0.0   0.128   0.000   70.5    48   49.9   68.8   8.86  .0752    0.001   201    7    100.0   10 
 5/07/21 11:10p   46.6   46.6   46.4    81   41.1   0.0   ---   0.00   0.0   ---   46.6   46.4   46.4   42.9  30.432  0.00  0.00     0     0.00      0     0.0  0.00   0.0   0.128   0.000   70.5    48   49.9   68.8   8.86  .0752    0.000   198    7    100.0   10 
 5/07/21 11:20p   46.9   46.9   46.5    81   41.4   0.0     E   0.00   2.0     E   46.9   46.7   46.7   43.2  30.432  0.00  0.00     0     0.00      0     0.0  0.00   0.0   0.126   0.000   70.5    48   49.9   68.8   8.86  .0752    0.000   198    7    100.0   10 
 5/07/21 11:30p   47.0   47.0   46.9    81   41.5   0.0     E   0.00   1.0     E   47.0   46.8   46.8   43.3  30.432  0.00  0.00     0     0.00      0     0.0  0.00   0.0   0.125   0.000   70.5    48   49.9   68.8   8.86  .0752    0.000   199    7    100.0   10 
 5/07/21 11:40p   47.1   47.1   46.9    81   41.6   0.0   ---   0.00   0.0   ---   47.1   46.9   46.9   43.4  30.432  0.00  0.00     0     0.00      0     0.0  0.00   0.0   0.124   0.000   70.5    48   49.9   68.8   8.86  .0752    0.000   200    7    100.0   10 
 5/07/21 11:50p   47.1   47.2   47.0    81   41.6   0.0   ---   0.00   0.0   ---   47.1   46.9   46.9   43.4  30.430  0.00  0.00     0     0.00      0     0.0  0.00   0.0   0.124   0.000   70.4    48   49.8   68.6   8.86  .0752    0.000   200    7    100.0   10 
 5/08/21 12:00a   46.9   47.1   46.9    81   41.4   0.0   ---   0.00   0.0   ---   46.9   46.7   46.7   43.2  30.430  0.00  0.00     0     0.00      0     0.0  0.00   0.0   0.126   0.000   70.4    48   49.8   68.6   8.86  .0752    0.000   199    7    100.0   10 
 5/08/21 12:10a   46.6   46.9   46.6    81   41.1   0.0   ---   0.00   0.0   ---   46.6   46.4   46.4   42.9  30.429  0.00  0.00     0     0.00      0     0.0  0.00   0.0   0.128   0.000   70.4    48   49.8   68.6   8.86  .0752    0.000   197    7     99.5   10 
 5/08/21 12:20a   46.3   46.6   46.3    81   40.8   0.0   ---   0.00   0.0   ---   46.3   46.1   46.1   42.6  30.428  0.00  0.00     0     0.00      0     0.0  0.00   0.0   0.130   0.000   70.3    48   49.7   68.5   8.86  .0753    0.000   199    7    100.0   10 
 5/08/21 12:30a   46.0   46.3   46.0    81   40.5   0.0   ---   0.00   0.0   ---   46.0   45.8   45.8   42.3  30.429  0.00  0.00     0     0.00      0     0.0  0.00   0.0   0.132   0.000   70.3    48   49.7   68.5   8.86  .0753    0.000   202    7    100.0   10 
 5/08/21 12:40a   45.9   46.0   45.8    82   40.7   0.0   ---   0.00   0.0   ---   45.9   45.8   45.8   42.3  30.428  0.00  0.00     0     0.00      0     0.0  0.00   0.0   0.133   0.000   70.2    47   49.0   68.3   8.75  .0753    0.000   198    7    100.0   10 
 5/08/21 12:50a   46.1   46.1   45.9    82   40.9   0.0   ---   0.00   0.0   ---   46.1   46.0   46.0   42.5  30.429  0.00  0.00     0     0.00      0     0.0  0.00   0.0   0.131   0.000   70.2    47   49.0   68.3   8.75  .0753    0.000   200    7    100.0   10 
 5/08/21  1:00a   46.0   46.1   46.0    82   40.8   0.0   ---   0.00   0.0   ---   46.0   45.9   45.9   42.4  30.429  0.00  0.00     0     0.00      0     0.0  0.00   0.0   0.132   0.000   70.1    47   48.9   68.1   8.75  .0753    0.000   204    7    100.0   10 
 5/08/21  1:10a   46.0   46.0   46.0    83   41.1   0.0   ---   0.00   0.0   ---   46.0   45.9   45.9   42.4  30.428  0.00  0.00     0     0.00      0     0.0  0.00   0.0   0.132   0.000   70.1    47   48.9   68.1   8.75  .0753    0.000   203    7    100.0   10 
 5/08/21  1:20a   45.6   46.0   45.6    82   40.4   1.0   ESE   0.17   5.0    SE   45.6   45.5   45.5   42.0  30.428  0.00  0.00     0     0.00      0     0.0  0.00   0.0   0.135   0.000   70.0    47   48.8   68.0   8.75  .0753    0.000   200    7    100.0   10 
 5/08/21  1:30a   45.4   45.6   45.4    83   40.5   2.0   ESE   0.33   6.0   ESE   45.4   45.3   45.3   41.8  30.426  0.00  0.00     0     0.00      0     0.0  0.00   0.0   0.136   0.000   70.0    47   48.8   68.0   8.75  .0753    0.000   204    7    100.0   10 
 5/08/21  1:40a   45.4   45.5   45.4    83   40.5   2.0    SE   0.33   6.0   ESE   45.4   45.3   45.3   41.8  30.427  0.00  0.00     0     0.00      0     0.0  0.00   0.0   0.136   0.000   69.9    47   48.7   67.9   8.75  .0753    0.000   204    7    100.0   10 
 5/08/21  1:50a   45.4   45.5   45.4    83   40.5   2.0   ESE   0.33   5.0   SSE   45.4   45.3   45.3   41.8  30.428  0.00  0.00     0     0.00      0     0.0  0.00   0.0   0.136   0.000   69.9    47   48.7   67.9   8.75  .0753    0.000   204    7    100.0   10 
 5/08/21  2:00a   45.5   45.5   45.4    83   40.6   2.0   ESE   0.33   6.0   ESE   45.5   45.4   45.4   41.9  30.427  0.00  0.00     0     0.00      0     0.0  0.00   0.0   0.135   0.000   69.9    47   48.7   67.9   8.75  .0753    0.001   202    7    100.0   10 
 5/08/21  2:10a   45.4   45.5   45.4    83   40.5   1.0    SE   0.17   4.0    SE   45.4   45.3   45.3   41.8  30.428  0.00  0.00     0     0.00      0     0.0  0.00   0.0   0.136   0.000   69.8    47   48.7   67.9   8.75  .0754    0.000   203    7    100.0   10 
 5/08/21  2:20a   45.3   45.4   45.2    83   40.4   1.0    SE   0.17   3.0   ESE   45.3   45.2   45.2   41.7  30.423  0.00  0.00     0     0.00      0     0.0  0.00   0.0   0.137   0.000   69.7    47   48.6   67.8   8.76  .0754    0.000   204    7    100.0   10 
 5/08/21  2:30a   45.1   45.3   45.1    84   40.6   1.0   ESE   0.17   3.0   ESE   45.1   45.0   45.0   41.5  30.420  0.00  0.00     0     0.00      0     0.0  0.00   0.0   0.138   0.000   69.7    47   48.6   67.8   8.76  .0754    0.000   200    7    100.0   10 
 5/08/21  2:40a   45.3   45.3   45.1    84   40.7   3.0   ESE   0.50   7.0   ESE   44.4   45.2   44.3   40.8  30.416  0.00  0.00     0     0.00      0     0.0  0.00   0.0   0.137   0.000   69.6    47   48.5   67.7   8.76  .0754    0.000   199    7    100.0   10 
 5/08/21  2:50a   45.4   45.4   45.2    84   40.8   4.0   ESE   0.67   9.0   ESE   43.5   45.3   43.4   39.9  30.414  0.00  0.00     0     0.00      0     0.0  0.00   0.0   0.136   0.000   69.6    47   48.5   67.7   8.76  .0754    0.000   204    7    100.0   10 
 5/08/21  3:00a   45.3   45.4   45.3    84   40.7   5.0   ESE   0.83   9.0    SE   42.7   45.2   42.6   39.1  30.414  0.00  0.00     0     0.00      0     0.0  0.00   0.0   0.137   0.000   69.5    47   48.4   67.6   8.76  .0754    0.001   203    7    100.0   10 
 5/08/21  3:10a   45.1   45.3   45.1    84   40.6   5.0   ESE   0.83   9.0    SE   42.4   45.0   42.3   38.8  30.413  0.00  0.00     0     0.00      0     0.0  0.00   0.0   0.138   0.000   69.5    47   48.4   67.6   8.76  .0754    0.000   203    7    100.0   10 
 5/08/21  3:20a   45.0   45.2   45.0    85   40.8   4.0   ESE   0.67   8.0   ESE   43.1   44.9   43.0   39.5  30.418  0.00  0.00     0     0.00      0     0.0  0.00   0.0   0.139   0.000   69.4    47   48.3   67.6   8.76  .0754    0.000   202    7    100.0   10 
 5/08/21  3:30a   45.2   45.2   45.0    85   41.0   3.0   ESE   0.50   6.0   ESE   44.2   45.1   44.1   40.6  30.420  0.00  0.00     0     0.00      0     0.0  0.00   0.0   0.137   0.000   69.4    47   48.3   67.6   8.76  .0754    0.000   201    7    100.0   10 
 5/08/21  3:40a   45.5   45.6   45.2    85   41.3   3.0   ESE   0.50   7.0   ESE   44.6   45.5   44.6   41.1  30.417  0.00  0.00     0     0.00      0     0.0  0.00   0.0   0.135   0.000   69.3    47   48.2   67.5   8.76  .0754    0.000   204    7    100.0   10 
 5/08/21  3:50a   45.7   45.8   45.6    85   41.4   3.0   ESE   0.50   7.0   ESE   44.8   45.7   44.8   41.3  30.418  0.00  0.00     0     0.00      0     0.0  0.00   0.0   0.134   0.000   69.2    47   48.1   67.4   8.77  .0754    0.000   202    7    100.0   10 
 5/08/21  4:00a   45.7   45.8   45.7    85   41.4   4.0   ESE   0.67   9.0   ESE   43.9   45.7   43.9   40.4  30.413  0.00  0.00     0     0.00      0     0.0  0.00   0.0   0.134   0.000   69.2    47   48.1   67.4   8.77  .0754    0.001   204    7    100.0   10 
 5/08/21  4:10a   45.5   45.7   45.4    85   41.3   4.0   ESE   0.67   8.0   ESE   43.7   45.5   43.7   40.2  30.411  0.00  0.00     0     0.00      0     0.0  0.00   0.0   0.135   0.000   69.1    47   48.0   67.4   8.77  .0754    0.000   205    7    100.0   10 
 5/08/21  4:20a   45.1   45.5   45.1    85   40.9   5.0   ESE   0.83  10.0   ESE   42.4   45.0   42.3   38.8  30.410  0.00  0.00     0     0.00      0     0.0  0.00   0.0   0.138   0.000   69.0    47   47.9   67.3   8.77  .0755    0.000   203    7    100.0   10 
 5/08/21  4:30a   44.9   45.1   44.8    85   40.7   5.0   ESE   0.83   9.0    SE   42.2   44.8   42.1   38.6  30.411  0.00  0.00     0     0.00      0     0.0  0.00   0.0   0.140   0.000   69.0    47   47.9   67.3   8.77  .0755    0.000   202    7    100.0   10 
 5/08/21  4:40a   44.7   44.9   44.7    86   40.8   5.0   ESE   0.83   9.0     E   42.0   44.6   41.9   38.4  30.406  0.00  0.00     0     0.00      0     0.0  0.00   0.0   0.141   0.000   68.9    47   47.8   67.2   8.77  .0755    0.000   203    7    100.0   10 
 5/08/21  4:50a   44.5   44.7   44.5    86   40.6   5.0   ESE   0.83   9.0    SE   41.8   44.4   41.7   38.2  30.411  0.00  0.00     0     0.00      0     0.0  0.00   0.0   0.142   0.000   68.9    47   47.8   67.2   8.77  .0755    0.000   204    7    100.0   10 
 5/08/21  5:00a   44.4   44.5   44.3    86   40.5   5.0   ESE   0.83   9.0   ESE   41.6   44.3   41.5   38.0  30.409  0.00  0.00     0     0.00      0     0.0  0.00   0.0   0.143   0.000   68.8    47   47.7   67.1   8.77  .0755    0.001   202    7    100.0   10 
 5/08/21  5:10a   44.4   44.5   44.3    87   40.8   4.0   ESE   0.67   8.0    SE   42.4   44.4   42.4   38.9  30.412  0.00  0.00     0     0.00      0     0.0  0.00   0.0   0.143   0.000   68.7    47   47.6   67.0   8.78  .0755    0.000   203    7    100.0   10 
 5/08/21  5:20a   44.5   44.6   44.5    87   40.9   5.0   ESE   0.83   8.0     E   41.8   44.5   41.8   38.3  30.410  0.00  0.00     0     0.00      0     0.0  0.00   0.0   0.142   0.000   68.7    47   47.6   67.0   8.78  .0755    0.000   204    7    100.0   10 
 5/08/21  5:30a   44.6   44.7   44.5    87   41.0   5.0   ESE   0.83   9.0   ESE   41.9   44.6   41.9   38.4  30.408  0.00  0.00     0     0.00      0     0.0  0.00   0.0   0.142   0.000   68.6    47   47.6   66.9   8.78  .0755    0.000   203    7    100.0   10 
Email: AdamSPAM@StormwatchersRetreat.com (To send me email remove the word 'SPAM' from my email address.)